Time;durP1;ratioP1;P1;durP2;ratioP2;P2;SDS_P1;SDS_P2;PMS_P1;PMS_P2;Temp;Humidity;BMP_temperature;BMP_pressure;BME280_temperature;BME280_humidity;BME280_pressure;Samples;Min_cycle;Max_cycle;Signal;HPM_P1;HPM_P2
2021/10/15 00:00:06;;;;;;;9.10;5.80;;;5.30;99.90;;;;;;5070681;28;20447;-58
2021/10/15 00:02:33;;;;;;;8.00;5.20;;;5.10;99.90;;;;;;5070879;28;20501;-58
2021/10/15 00:05:00;;;;;;;9.77;5.80;;;5.00;99.90;;;;;;5071621;28;20466;-59
2021/10/15 00:07:26;;;;;;;9.30;5.60;;;5.00;99.90;;;;;;5074974;28;20499;-58
2021/10/15 00:09:53;;;;;;;7.47;5.00;;;5.00;99.90;;;;;;5074820;28;20446;-58
2021/10/15 00:12:20;;;;;;;7.50;5.60;;;5.10;99.90;;;;;;5074547;28;21019;-58
2021/10/15 00:14:49;;;;;;;6.80;5.20;;;5.20;99.90;;;;;;5074418;28;20952;-58
2021/10/15 00:17:17;;;;;;;7.73;5.00;;;5.30;99.90;;;;;;5074866;28;20446;-58
2021/10/15 00:19:44;;;;;;;6.40;4.60;;;5.30;99.90;;;;;;5074237;28;20458;-58
2021/10/15 00:22:11;;;;;;;8.63;5.30;;;5.30;99.90;;;;;;5074473;28;20498;-58
2021/10/15 00:24:38;;;;;;;6.43;4.23;;;5.40;99.90;;;;;;5074764;28;20528;-58
2021/10/15 00:27:05;;;;;;;7.93;4.83;;;5.40;99.90;;;;;;5074212;28;20500;-59
2021/10/15 00:29:32;;;;;;;8.03;4.70;;;5.40;99.90;;;;;;5074234;28;20522;-59
2021/10/15 00:32:00;;;;;;;7.47;5.50;;;5.40;99.90;;;;;;5074196;28;20475;-59
2021/10/15 00:34:27;;;;;;;10.90;6.70;;;5.40;99.90;;;;;;5074527;28;20504;-59
2021/10/15 00:36:54;;;;;;;10.73;6.50;;;5.30;99.90;;;;;;5074593;28;20463;-59
2021/10/15 00:39:21;;;;;;;9.20;5.60;;;5.40;99.90;;;;;;5074090;28;20560;-59
2021/10/15 00:41:48;;;;;;;9.30;6.47;;;5.30;99.90;;;;;;5073597;28;20459;-59
2021/10/15 00:44:15;;;;;;;8.40;5.70;;;5.40;99.90;;;;;;5074307;28;21023;-59
2021/10/15 00:46:43;;;;;;;7.80;5.60;;;5.30;99.90;;;;;;5074087;28;20482;-59
2021/10/15 00:49:13;;;;;;;9.00;6.33;;;5.30;99.90;;;;;;5073925;28;20866;-59
2021/10/15 00:51:42;;;;;;;9.60;6.17;;;5.20;99.90;;;;;;5074148;28;20863;-59
2021/10/15 00:54:11;;;;;;;8.67;5.50;;;5.10;99.90;;;;;;5074076;28;20680;-59
2021/10/15 00:56:38;;;;;;;9.53;5.97;;;5.10;99.90;;;;;;5073760;28;20467;-58
2021/10/15 00:59:05;;;;;;;7.07;5.20;;;5.10;99.90;;;;;;5073684;28;20454;-59
2021/10/15 01:01:32;;;;;;;7.10;5.80;;;5.10;99.90;;;;;;5072997;28;20511;-58
2021/10/15 01:04:00;;;;;;;8.23;6.13;;;5.00;99.90;;;;;;5073867;28;20479;-59
2021/10/15 01:06:29;;;;;;;8.13;5.90;;;4.80;99.90;;;;;;5074145;28;20467;-59
2021/10/15 01:08:56;;;;;;;11.23;6.00;;;4.90;99.90;;;;;;5073344;28;20447;-59
2021/10/15 01:11:23;;;;;;;9.63;6.20;;;5.00;99.90;;;;;;5073172;28;20509;-59
2021/10/15 01:13:50;;;;;;;7.90;5.60;;;5.00;99.90;;;;;;5073361;28;20451;-59
2021/10/15 01:16:18;;;;;;;8.07;5.43;;;5.00;99.90;;;;;;5072841;28;20471;-59
2021/10/15 01:18:46;;;;;;;8.57;5.80;;;5.00;99.90;;;;;;5073441;28;20501;-58
2021/10/15 01:21:14;;;;;;;8.50;5.90;;;5.00;99.90;;;;;;5073052;28;20983;-59
2021/10/15 01:23:42;;;;;;;7.90;5.50;;;4.90;99.90;;;;;;5073440;28;20450;-59
2021/10/15 01:26:09;;;;;;;8.80;6.40;;;4.90;99.90;;;;;;5073385;28;20462;-59
2021/10/15 01:28:36;;;;;;;8.90;6.53;;;4.70;99.90;;;;;;5073110;28;20948;-59
2021/10/15 01:31:04;;;;;;;8.53;6.23;;;4.70;99.90;;;;;;5072617;28;21006;-59
2021/10/15 01:33:31;;;;;;;9.20;6.00;;;4.60;99.90;;;;;;5073518;28;20447;-59
2021/10/15 01:35:58;;;;;;;8.27;5.83;;;4.70;99.90;;;;;;5072658;28;20462;-59
2021/10/15 01:38:27;;;;;;;8.70;5.57;;;4.70;99.90;;;;;;5072943;28;20500;-59
2021/10/15 01:40:55;;;;;;;8.77;5.90;;;4.80;99.90;;;;;;5072315;28;20451;-59
2021/10/15 01:43:23;;;;;;;7.80;5.93;;;4.60;99.90;;;;;;5072810;28;20451;-59
2021/10/15 01:45:50;;;;;;;9.03;6.13;;;4.60;99.90;;;;;;5072910;28;20531;-59
2021/10/15 01:48:17;;;;;;;11.13;6.10;;;4.60;99.90;;;;;;5073166;28;20447;-59
2021/10/15 01:50:45;;;;;;;8.60;6.10;;;4.60;99.90;;;;;;5072456;28;20447;-59
2021/10/15 01:53:12;;;;;;;9.87;6.10;;;4.70;99.90;;;;;;5072707;28;20870;-59
2021/10/15 01:55:41;;;;;;;9.30;6.13;;;4.50;99.90;;;;;;5071827;28;20466;-59
2021/10/15 01:58:08;;;;;;;7.97;5.90;;;4.50;99.90;;;;;;5072565;28;20504;-59
2021/10/15 02:00:39;;;;;;;7.70;5.57;;;4.60;99.90;;;;;;5072287;28;20451;-59
2021/10/15 02:03:06;;;;;;;9.30;5.53;;;4.60;99.90;;;;;;5072792;28;20447;-59
2021/10/15 02:05:36;;;;;;;9.37;6.03;;;4.50;99.90;;;;;;5072677;28;20475;-59
2021/10/15 02:08:03;;;;;;;11.17;6.53;;;4.40;99.90;;;;;;5071924;28;20446;-59
2021/10/15 02:10:30;;;;;;;11.13;6.37;;;4.40;99.90;;;;;;5072241;28;20503;-59
2021/10/15 02:12:58;;;;;;;8.90;5.73;;;4.20;99.90;;;;;;5072535;28;20486;-59
2021/10/15 02:15:25;;;;;;;7.27;5.40;;;4.30;99.90;;;;;;5072577;28;20469;-59
2021/10/15 02:17:52;;;;;;;8.40;6.10;;;4.40;99.90;;;;;;5072415;28;20450;-59
2021/10/15 02:20:20;;;;;;;8.70;6.20;;;4.30;99.90;;;;;;5071953;28;20956;-59
2021/10/15 02:22:49;;;;;;;10.10;6.40;;;4.30;99.90;;;;;;5071804;28;20666;-59
2021/10/15 02:25:17;;;;;;;8.83;6.03;;;4.30;99.90;;;;;;5072619;28;20516;-59
2021/10/15 02:27:45;;;;;;;9.07;5.47;;;4.20;99.90;;;;;;5072395;28;20512;-59
2021/10/15 02:30:14;;;;;;;9.70;5.90;;;4.20;99.90;;;;;;5072093;28;20449;-59
2021/10/15 02:32:42;;;;;;;7.53;5.53;;;4.20;99.90;;;;;;5072856;28;20527;-59
2021/10/15 02:35:09;;;;;;;8.53;5.70;;;4.30;99.90;;;;;;5079208;28;20471;-59
2021/10/15 02:37:37;;;;;;;8.50;5.60;;;4.20;99.90;;;;;;5084205;28;20442;-59
2021/10/15 02:40:04;;;;;;;8.07;5.60;;;4.10;99.90;;;;;;5082999;28;20873;-59
2021/10/15 02:42:31;;;;;;;9.10;6.23;;;4.20;99.90;;;;;;5078337;28;20817;-59
2021/10/15 02:44:58;;;;;;;8.37;5.67;;;4.20;99.90;;;;;;5072034;28;20535;-59
2021/10/15 02:47:26;;;;;;;7.37;5.80;;;4.20;99.90;;;;;;5072207;28;20495;-58
2021/10/15 02:49:53;;;;;;;8.17;5.97;;;4.10;99.90;;;;;;5071371;28;20497;-58
2021/10/15 02:52:20;;;;;;;10.27;6.40;;;4.20;99.90;;;;;;5071871;28;20486;-59
2021/10/15 02:54:47;;;;;;;10.23;6.77;;;4.20;99.90;;;;;;5071981;28;20447;-59
2021/10/15 02:57:14;;;;;;;9.70;6.43;;;4.10;99.90;;;;;;5071606;28;20500;-59
2021/10/15 02:59:41;;;;;;;11.63;6.20;;;4.10;99.90;;;;;;5071595;28;20446;-59
2021/10/15 03:02:08;;;;;;;9.23;6.60;;;4.00;99.90;;;;;;5071502;28;20450;-59
2021/10/15 03:04:36;;;;;;;7.60;5.80;;;4.10;99.90;;;;;;5071550;28;20875;-59
2021/10/15 03:07:03;;;;;;;12.13;6.10;;;4.10;99.90;;;;;;5071753;28;20446;-59
2021/10/15 03:09:30;;;;;;;8.43;5.93;;;4.10;99.90;;;;;;5071488;28;20500;-59
2021/10/15 03:11:57;;;;;;;10.70;6.63;;;4.10;99.90;;;;;;5071330;28;20539;-59
2021/10/15 03:14:24;;;;;;;9.23;6.10;;;4.10;99.90;;;;;;5071657;28;20446;-59
2021/10/15 03:16:51;;;;;;;9.40;6.80;;;4.10;99.90;;;;;;5071159;28;20466;-58
2021/10/15 03:19:18;;;;;;;9.93;6.30;;;4.10;99.90;;;;;;5071354;28;20875;-59
2021/10/15 03:21:47;;;;;;;8.60;5.77;;;4.10;99.90;;;;;;5071035;28;20481;-59
2021/10/15 03:24:14;;;;;;;12.80;7.30;;;4.10;99.90;;;;;;5071616;28;20451;-59
2021/10/15 03:26:41;;;;;;;13.07;6.57;;;3.90;99.90;;;;;;5071522;28;20531;-59
2021/10/15 03:29:08;;;;;;;9.33;5.47;;;3.80;99.90;;;;;;5070929;28;20454;-59
2021/10/15 03:31:35;;;;;;;8.57;5.90;;;3.90;99.90;;;;;;5070863;28;20552;-59
2021/10/15 03:34:03;;;;;;;13.90;6.60;;;4.00;99.90;;;;;;5071684;28;20450;-59
2021/10/15 03:36:30;;;;;;;9.70;6.20;;;4.00;99.90;;;;;;5070782;28;20471;-58
2021/10/15 03:38:58;;;;;;;8.90;5.87;;;4.00;99.90;;;;;;5070863;28;20451;-58
2021/10/15 03:41:25;;;;;;;7.03;5.70;;;3.90;99.90;;;;;;5074197;28;20801;-59
2021/10/15 03:43:52;;;;;;;9.40;6.57;;;3.90;99.90;;;;;;5075293;28;20882;-59
2021/10/15 03:46:19;;;;;;;12.10;7.13;;;3.90;99.90;;;;;;5074714;28;20478;-58
2021/10/15 03:48:46;;;;;;;11.80;6.47;;;4.00;99.90;;;;;;5074943;28;20525;-59
2021/10/15 03:51:13;;;;;;;9.45;6.40;;;4.00;99.90;;;;;;5074932;28;20451;-59
2021/10/15 03:53:40;;;;;;;10.80;6.40;;;4.00;99.90;;;;;;5075349;28;20478;-59
2021/10/15 03:56:09;;;;;;;9.27;5.73;;;3.90;99.90;;;;;;5075192;28;20471;-59
2021/10/15 03:58:36;;;;;;;8.53;5.40;;;3.70;99.90;;;;;;5074413;28;20458;-59
2021/10/15 04:01:02;;;;;;;6.80;5.03;;;3.80;99.90;;;;;;5074385;28;20450;-59
2021/10/15 04:03:29;;;;;;;7.17;4.73;;;3.90;99.90;;;;;;5074961;28;20492;-59
2021/10/15 04:05:57;;;;;;;9.63;5.30;;;3.80;99.90;;;;;;5074645;28;21045;-59
2021/10/15 04:08:24;;;;;;;9.47;5.33;;;3.80;99.90;;;;;;5074555;28;20459;-59
2021/10/15 04:10:51;;;;;;;6.07;4.80;;;3.90;99.90;;;;;;5074666;28;20450;-59
2021/10/15 04:13:20;;;;;;;9.37;5.00;;;3.90;99.90;;;;;;5074644;28;20478;-59
2021/10/15 04:15:47;;;;;;;7.63;4.90;;;3.90;99.90;;;;;;5074857;28;20471;-59
2021/10/15 04:18:14;;;;;;;6.97;4.40;;;3.90;99.90;;;;;;5074541;28;20442;-59
2021/10/15 04:20:44;;;;;;;7.13;4.60;;;3.90;99.90;;;;;;5074563;28;20447;-59
2021/10/15 04:23:11;;;;;;;8.60;4.80;;;4.00;99.90;;;;;;5074678;28;20932;-58
2021/10/15 04:25:40;;;;;;;7.93;5.80;;;4.10;99.90;;;;;;5073955;28;20466;-59
2021/10/15 04:28:07;;;;;;;8.50;5.83;;;4.00;99.90;;;;;;5073821;28;20507;-59
2021/10/15 04:30:35;;;;;;;9.73;5.60;;;4.00;99.90;;;;;;5074405;28;20523;-58
2021/10/15 04:33:02;;;;;;;7.70;5.80;;;3.90;99.90;;;;;;5074354;28;20486;-59
2021/10/15 04:35:29;;;;;;;7.37;5.27;;;4.00;99.90;;;;;;5073709;28;20467;-59
2021/10/15 04:37:56;;;;;;;9.57;6.30;;;3.90;99.90;;;;;;5073949;28;20443;-59
2021/10/15 04:40:23;;;;;;;11.33;7.07;;;4.00;99.90;;;;;;5073066;28;20534;-59
2021/10/15 04:42:50;;;;;;;10.57;5.50;;;3.90;99.90;;;;;;5063141;28;20443;-59
2021/10/15 04:45:17;;;;;;;8.33;4.70;;;3.90;99.90;;;;;;5074152;28;20539;-59
2021/10/15 04:47:46;;;;;;;8.10;5.90;;;3.80;99.90;;;;;;5073942;28;20450;-59
2021/10/15 04:50:13;;;;;;;10.33;6.80;;;3.80;99.90;;;;;;5073948;28;20883;-59
2021/10/15 04:52:40;;;;;;;7.77;5.50;;;3.80;99.90;;;;;;5073338;28;20535;-59
2021/10/15 04:55:08;;;;;;;9.60;5.47;;;3.80;99.90;;;;;;5074118;28;20470;-58
2021/10/15 04:57:35;;;;;;;8.33;5.60;;;3.80;99.90;;;;;;5074148;28;20507;-59
2021/10/15 05:00:03;;;;;;;8.37;5.50;;;3.80;99.90;;;;;;5073662;28;20454;-59
2021/10/15 05:02:30;;;;;;;7.33;5.10;;;3.80;99.90;;;;;;5073819;28;20450;-59
2021/10/15 05:04:58;;;;;;;14.20;6.50;;;3.80;99.90;;;;;;5073429;28;20557;-59
2021/10/15 05:07:26;;;;;;;9.40;6.10;;;3.80;99.90;;;;;;5069939;28;20497;-59
2021/10/15 05:09:53;;;;;;;11.37;6.80;;;3.60;99.90;;;;;;5073463;28;20451;-59
2021/10/15 05:12:20;;;;;;;11.80;6.30;;;3.70;99.90;;;;;;5072767;28;20490;-59
2021/10/15 05:14:48;;;;;;;10.70;5.97;;;3.70;99.90;;;;;;5072837;28;20891;-58
2021/10/15 05:17:16;;;;;;;7.60;6.00;;;3.70;99.90;;;;;;5072062;28;20447;-58
2021/10/15 05:19:43;;;;;;;10.10;6.47;;;3.70;99.90;;;;;;5073167;28;20523;-58
2021/10/15 05:22:11;;;;;;;10.20;7.23;;;3.80;99.90;;;;;;5073056;28;20505;-58
2021/10/15 05:24:38;;;;;;;10.40;7.30;;;3.70;99.90;;;;;;5072540;28;20447;-59
2021/10/15 05:27:05;;;;;;;11.17;7.33;;;3.50;99.90;;;;;;5072661;28;20960;-59
2021/10/15 05:29:32;;;;;;;10.10;6.87;;;3.60;99.90;;;;;;5071334;28;20951;-58
2021/10/15 05:31:59;;;;;;;11.03;7.67;;;3.70;99.90;;;;;;5073015;28;20447;-59
2021/10/15 05:34:26;;;;;;;13.60;9.23;;;3.70;99.90;;;;;;5072972;28;20487;-59
2021/10/15 05:36:53;;;;;;;11.47;8.60;;;3.80;99.90;;;;;;5072615;28;20887;-59
2021/10/15 05:39:22;;;;;;;11.33;8.70;;;3.80;99.90;;;;;;5072622;28;21016;-58
2021/10/15 05:41:49;;;;;;;12.17;8.07;;;3.80;99.90;;;;;;5072576;28;20447;-59
2021/10/15 05:44:16;;;;;;;8.90;6.67;;;3.70;99.90;;;;;;5073060;28;20439;-59
2021/10/15 05:46:42;;;;;;;10.20;6.30;;;3.80;99.90;;;;;;5072206;28;20479;-58
2021/10/15 05:49:09;;;;;;;11.97;7.50;;;3.80;99.90;;;;;;5072550;28;20450;-58
2021/10/15 05:51:40;;;;;;;11.40;6.70;;;3.80;99.90;;;;;;5072373;28;20443;-58
2021/10/15 05:54:09;;;;;;;19.27;10.40;;;3.80;99.90;;;;;;5072480;28;20516;-59
2021/10/15 05:56:46;;;;;;;19.10;11.00;;;3.80;99.90;;;;;;5072057;28;20467;-58
2021/10/15 05:59:12;;;;;;;19.47;10.87;;;3.80;99.90;;;;;;5072201;28;20453;-59
2021/10/15 06:01:40;;;;;;;15.00;9.77;;;3.90;99.90;;;;;;5065755;28;20447;-59
2021/10/15 06:15:02;;;;;;;9.03;5.30;;;4.00;99.90;;;;;;5071292;28;20619;-59
2021/10/15 06:17:30;;;;;;;10.83;5.20;;;4.00;99.90;;;;;;5072118;28;20447;-59
2021/10/15 06:19:57;;;;;;;8.97;5.37;;;4.00;99.90;;;;;;5072246;28;20454;-58
2021/10/15 06:22:26;;;;;;;10.63;6.40;;;4.10;99.90;;;;;;5071278;28;20451;-59
2021/10/15 06:24:53;;;;;;;14.60;6.90;;;4.00;99.90;;;;;;5072366;28;20463;-59
2021/10/15 06:27:23;;;;;;;10.70;6.00;;;4.10;99.90;;;;;;5072180;28;20947;-59
2021/10/15 06:29:51;;;;;;;12.80;6.47;;;4.20;99.90;;;;;;5070796;28;20509;-59
2021/10/15 06:32:18;;;;;;;9.37;5.53;;;4.20;99.90;;;;;;5070015;28;20463;-59
2021/10/15 06:34:46;;;;;;;9.50;5.17;;;4.30;99.90;;;;;;5071045;28;20512;-59
2021/10/15 06:37:13;;;;;;;6.67;4.83;;;4.40;99.90;;;;;;5071716;28;20454;-59
2021/10/15 06:39:40;;;;;;;8.30;5.70;;;4.40;99.90;;;;;;5071567;28;20443;-59
2021/10/15 06:42:07;;;;;;;6.60;4.40;;;4.50;99.90;;;;;;5070971;28;20529;-59
2021/10/15 06:44:36;;;;;;;6.00;4.00;;;4.50;99.90;;;;;;5070034;28;20446;-59
2021/10/15 06:47:03;;;;;;;6.03;4.30;;;4.60;99.90;;;;;;5081144;22;20499;-53
2021/10/15 06:49:30;;;;;;;5.67;4.57;;;4.60;99.90;;;;;;5051654;28;21196;-52
2021/10/15 06:51:57;;;;;;;9.97;4.80;;;4.70;99.90;;;;;;5051136;28;21010;-53
2021/10/15 06:54:24;;;;;;;8.00;3.90;;;4.70;99.90;;;;;;5050859;28;21004;-53
2021/10/15 06:56:51;;;;;;;7.37;4.00;;;4.80;99.90;;;;;;5048505;28;20483;-53
2021/10/15 06:59:18;;;;;;;5.27;3.80;;;4.80;99.90;;;;;;5048985;28;20517;-52
2021/10/15 07:01:46;;;;;;;5.10;3.90;;;4.80;99.90;;;;;;5049236;28;20455;-52
2021/10/15 07:04:13;;;;;;;7.07;3.90;;;4.90;99.90;;;;;;5050021;28;20451;-52
2021/10/15 07:06:40;;;;;;;6.17;4.13;;;4.90;99.90;;;;;;5051248;28;20834;-52
2021/10/15 07:09:07;;;;;;;7.33;4.40;;;5.00;99.90;;;;;;5051143;28;20929;-52
2021/10/15 07:11:38;;;;;;;5.80;3.70;;;5.10;99.90;;;;;;5051027;28;20452;-53
2021/10/15 07:14:06;;;;;;;5.37;3.80;;;5.10;99.90;;;;;;5050830;28;20483;-52
2021/10/15 07:16:33;;;;;;;4.47;3.43;;;5.30;99.90;;;;;;5050639;28;20499;-53
2021/10/15 07:19:02;;;;;;;5.23;3.57;;;5.50;99.90;;;;;;5050395;28;20513;-52
2021/10/15 07:21:29;;;;;;;5.40;3.80;;;5.70;99.90;;;;;;5049514;28;20452;-53
2021/10/15 07:23:56;;;;;;;4.20;3.40;;;5.80;99.90;;;;;;5050429;28;20497;-55
2021/10/15 07:26:23;;;;;;;9.73;4.10;;;6.00;99.90;;;;;;5050763;28;20539;-52
2021/10/15 07:28:50;;;;;;;8.60;4.70;;;6.10;99.90;;;;;;5051028;28;20460;-52
2021/10/15 07:31:23;;;;;;;4.80;4.07;;;6.30;99.90;;;;;;5049903;28;20517;-52
2021/10/15 07:33:51;;;;;;;4.10;3.37;;;6.50;99.90;;;;;;5048290;28;20954;-53
2021/10/15 07:36:19;;;;;;;4.17;3.60;;;6.70;99.90;;;;;;5050440;28;20471;-52
2021/10/15 07:38:46;;;;;;;5.57;3.40;;;6.80;99.90;;;;;;5051440;28;20811;-52
2021/10/15 07:41:14;;;;;;;6.43;3.93;;;7.10;99.90;;;;;;5049558;28;20458;-53
2021/10/15 07:43:41;;;;;;;6.30;3.60;;;7.20;99.90;;;;;;5050231;28;20443;-53
2021/10/15 07:46:09;;;;;;;6.13;3.00;;;7.30;99.90;;;;;;5044034;28;20477;-53
2021/10/15 07:48:36;;;;;;;3.50;2.80;;;7.50;99.90;;;;;;5047565;28;20464;-55
2021/10/15 07:51:03;;;;;;;3.10;2.33;;;7.70;99.90;;;;;;5050342;28;20516;-55
2021/10/15 07:53:31;;;;;;;2.83;2.40;;;7.90;99.90;;;;;;5050728;28;20475;-54
2021/10/15 07:55:58;;;;;;;4.27;2.70;;;7.90;99.90;;;;;;5062268;28;20467;-55
2021/10/15 07:58:25;;;;;;;4.87;3.03;;;8.00;99.90;;;;;;5050966;28;20449;-55
2021/10/15 08:00:52;;;;;;;4.90;3.17;;;8.00;99.90;;;;;;5049945;28;20452;-54
2021/10/15 08:03:19;;;;;;;3.57;2.70;;;8.10;99.90;;;;;;5050490;28;20513;-55
2021/10/15 08:05:46;;;;;;;2.90;2.60;;;8.20;99.90;;;;;;5053312;28;20451;-55
2021/10/15 08:08:13;;;;;;;3.20;2.60;;;8.50;99.90;;;;;;5051000;28;20452;-55
2021/10/15 08:10:41;;;;;;;3.00;2.60;;;8.80;99.90;;;;;;5046010;28;20453;-56
2021/10/15 08:13:08;;;;;;;3.77;2.93;;;8.90;99.90;;;;;;5049375;28;20478;-55
2021/10/15 08:15:35;;;;;;;3.97;2.47;;;8.90;99.90;;;;;;5050324;28;20451;-55
2021/10/15 08:18:02;;;;;;;2.40;2.20;;;9.00;99.90;;;;;;5050115;28;20500;-57
2021/10/15 08:20:29;;;;;;;5.23;2.80;;;9.10;99.90;;;;;;5049809;28;20524;-55
2021/10/15 08:22:56;;;;;;;3.03;2.53;;;9.10;99.90;;;;;;5050799;28;20501;-55
2021/10/15 08:25:24;;;;;;;3.10;2.50;;;9.20;99.90;;;;;;5050700;28;20452;-55
2021/10/15 08:27:53;;;;;;;2.70;2.30;;;9.10;99.90;;;;;;5054188;28;20914;-55
2021/10/15 08:30:19;;;;;;;2.77;2.37;;;9.00;99.90;;;;;;5053421;28;20446;-54
2021/10/15 08:32:46;;;;;;;6.20;2.77;;;9.10;99.90;;;;;;5053961;28;20447;-56
2021/10/15 08:35:13;;;;;;;4.47;2.70;;;9.40;99.90;;;;;;5054443;28;20473;-56
2021/10/15 08:37:40;;;;;;;5.27;2.83;;;9.70;99.90;;;;;;5054243;28;20981;-56
2021/10/15 08:40:09;;;;;;;5.43;2.53;;;10.10;99.90;;;;;;5053992;28;20444;-56
2021/10/15 08:42:37;;;;;;;3.50;2.70;;;10.50;99.90;;;;;;5054253;28;20589;-55
2021/10/15 08:45:07;;;;;;;3.73;2.50;;;10.70;99.90;;;;;;5054274;28;20448;-55
2021/10/15 08:47:34;;;;;;;4.73;3.30;;;10.90;99.90;;;;;;5054000;28;20487;-55
2021/10/15 08:50:01;;;;;;;5.10;2.70;;;11.10;99.90;;;;;;5054013;28;20456;-57
2021/10/15 08:52:28;;;;;;;5.37;2.57;;;11.50;99.90;;;;;;5054176;28;20871;-58
2021/10/15 08:54:54;;;;;;;4.40;2.70;;;12.00;99.90;;;;;;5053923;28;20475;-58
2021/10/15 08:57:21;;;;;;;3.00;2.43;;;12.10;99.90;;;;;;5054051;28;20485;-57
2021/10/15 08:59:50;;;;;;;4.97;2.47;;;12.40;99.90;;;;;;5053687;28;20451;-58
2021/10/15 09:02:23;;;;;;;2.10;1.90;;;12.70;99.90;;;;;;5053382;28;20475;-57
2021/10/15 09:04:52;;;;;;;4.30;1.63;;;12.70;99.90;;;;;;5054208;28;20578;-56
2021/10/15 09:07:21;;;;;;;2.80;2.10;;;12.50;99.90;;;;;;5053882;28;20471;-57
2021/10/15 09:09:49;;;;;;;3.90;2.03;;;12.30;99.90;;;;;;5053269;28;20550;-57
2021/10/15 09:12:18;;;;;;;2.90;1.87;;;12.10;99.90;;;;;;5053373;28;20487;-57
2021/10/15 09:14:46;;;;;;;6.50;2.57;;;12.00;99.90;;;;;;5053706;28;20484;-57
2021/10/15 09:17:16;;;;;;;2.40;2.00;;;12.40;99.90;;;;;;5053580;28;20535;-58
2021/10/15 09:19:46;;;;;;;1.67;1.57;;;12.80;99.90;;;;;;5053292;28;21003;-59
2021/10/15 09:22:22;;;;;;;2.37;1.63;;;13.20;99.90;;;;;;5053033;28;21016;-57
2021/10/15 09:24:54;;;;;;;4.53;1.90;;;13.50;99.90;;;;;;5053514;28;20940;-59
2021/10/15 09:27:24;;;;;;;1.90;1.60;;;13.90;99.90;;;;;;5053415;28;20476;-58
2021/10/15 09:29:54;;;;;;;1.50;1.40;;;14.00;99.90;;;;;;5053185;28;20582;-59
2021/10/15 09:32:24;;;;;;;4.53;1.73;;;14.40;99.90;;;;;;5053277;28;20488;-58
2021/10/15 09:34:53;;;;;;;3.83;1.53;;;14.70;99.90;;;;;;5053116;28;20997;-57
2021/10/15 09:37:22;;;;;;;1.73;1.60;;;15.30;99.90;;;;;;5052493;28;20472;-57
2021/10/15 09:39:49;;;;;;;2.70;2.13;;;15.80;99.90;;;;;;5052348;28;20448;-57
2021/10/15 09:42:24;;;;;;;1.97;1.50;;;15.80;99.90;;;;;;5053048;28;20456;-59
2021/10/15 09:44:51;;;;;;;1.83;1.73;;;15.80;99.90;;;;;;5053169;28;20457;-56
2021/10/15 09:47:21;;;;;;;2.43;1.97;;;16.00;99.90;;;;;;5052842;28;20475;-58
2021/10/15 09:49:58;;;;;;;3.27;1.97;;;15.80;99.90;;;;;;5052335;28;20837;-58
2021/10/15 09:52:40;;;;;;;1.93;1.77;;;16.10;99.90;;;;;;5052983;28;20447;-56
2021/10/15 09:55:20;;;;;;;2.72;1.80;;;16.70;99.90;;;;;;5049406;28;20452;-56
2021/10/15 09:57:49;;;;;;;2.03;1.50;;;17.20;99.90;;;;;;5052461;28;20224;-57
2021/10/15 10:00:18;;;;;;;2.03;1.80;;;17.60;99.90;;;;;;5052200;28;20452;-57
2021/10/15 10:02:46;;;;;;;3.67;3.33;;;17.30;99.90;;;;;;5052771;28;20521;-57
2021/10/15 10:05:17;;;;;;;2.50;1.67;;;17.50;99.90;;;;;;5050507;28;20439;-55
2021/10/15 10:07:45;;;;;;;5.60;1.97;;;17.10;99.90;;;;;;5052154;28;20521;-55
2021/10/15 10:10:15;;;;;;;1.70;1.60;;;17.20;99.90;;;;;;5052166;28;20456;-54
2021/10/15 10:12:42;;;;;;;2.70;2.07;;;17.10;99.90;;;;;;5047737;28;20489;-55
2021/10/15 10:15:11;;;;;;;1.90;1.80;;;16.20;99.90;;;;;;5051657;28;20553;-53
2021/10/15 10:17:44;;;;;;;2.97;1.60;;;16.10;99.90;;;;;;5051921;28;20468;-55
2021/10/15 10:20:17;;;;;;;2.03;1.83;;;16.20;99.90;;;;;;5051958;28;20506;-54
2021/10/15 10:22:51;;;;;;;1.90;1.80;;;16.50;99.90;;;;;;5052180;28;20878;-54
2021/10/15 10:25:24;;;;;;;2.30;1.63;;;16.30;99.90;;;;;;5051414;28;20535;-54
2021/10/15 10:27:53;;;;;;;2.90;2.00;;;17.00;99.90;;;;;;5051670;28;20471;-56
2021/10/15 10:30:36;;;;;;;2.60;1.70;;;16.60;99.90;;;;;;5051954;28;20452;-53
2021/10/15 10:33:04;;;;;;;2.23;1.50;;;17.00;99.90;;;;;;5052010;28;20448;-55
2021/10/15 10:35:33;;;;;;;3.67;2.37;;;17.20;99.90;;;;;;5051216;28;20479;-54
2021/10/15 10:38:36;;;;;;;2.20;2.00;;;17.00;99.90;;;;;;5051874;28;21007;-53
2021/10/15 10:41:28;;;;;;;3.23;2.00;;;16.60;99.90;;;;;;5051513;28;20455;-55
2021/10/15 10:44:22;;;;;;;2.60;1.83;;;16.70;99.90;;;;;;5049113;28;20513;-55
2021/10/15 10:47:12;;;;;;;4.03;2.00;;;16.40;99.90;;;;;;5051352;28;20559;-54
2021/10/15 10:49:40;;;;;;;4.03;2.27;;;16.30;99.90;;;;;;5050944;28;20914;-54
2021/10/15 10:52:20;;;;;;;2.90;1.80;;;16.30;99.90;;;;;;5051644;28;20498;-53
2021/10/15 10:54:48;;;;;;;3.00;1.97;;;16.10;99.90;;;;;;5031865;28;20496;-54
2021/10/15 10:57:18;;;;;;;2.47;1.90;;;16.00;99.90;;;;;;5050424;28;20471;-54
2021/10/15 10:59:45;;;;;;;3.47;1.93;;;16.00;99.90;;;;;;5051734;28;21040;-53
2021/10/15 11:02:20;;;;;;;3.07;1.77;;;15.90;99.90;;;;;;5050906;28;20965;-54
2021/10/15 11:04:59;;;;;;;4.80;2.10;;;15.90;99.90;;;;;;5070648;28;20446;-56
2021/10/15 11:07:29;;;;;;;3.20;2.20;;;15.70;99.90;;;;;;5063728;28;20476;-55
2021/10/15 11:10:02;;;;;;;3.70;2.90;;;15.60;99.90;;;;;;5051269;28;20497;-55
2021/10/15 11:12:58;;;;;;;3.80;2.70;;;15.60;99.90;;;;;;5051425;28;20459;-53
2021/10/15 11:15:29;;;;;;;3.57;2.73;;;15.70;99.90;;;;;;5044511;28;20484;-53
2021/10/15 11:17:56;;;;;;;3.60;3.07;;;15.80;99.90;;;;;;5051242;28;20523;-54
2021/10/15 11:20:25;;;;;;;4.00;3.40;;;15.90;99.90;;;;;;5050652;28;20501;-53
2021/10/15 11:22:55;;;;;;;3.23;2.93;;;15.90;99.90;;;;;;5051134;28;20494;-54
2021/10/15 11:25:24;;;;;;;4.13;3.20;;;15.80;99.90;;;;;;5051422;28;20459;-53
2021/10/15 11:27:53;;;;;;;3.63;3.10;;;15.50;99.90;;;;;;5051303;28;20525;-53
2021/10/15 11:30:22;;;;;;;5.07;2.80;;;15.60;99.90;;;;;;5050910;28;20538;-53
2021/10/15 11:32:51;;;;;;;3.10;2.50;;;15.70;99.90;;;;;;5051174;28;20447;-53
2021/10/15 11:35:19;;;;;;;5.67;2.90;;;15.60;99.90;;;;;;5050827;28;20524;-53
2021/10/15 11:37:55;;;;;;;4.63;2.97;;;15.60;99.90;;;;;;5050720;28;20464;-53
2021/10/15 11:40:26;;;;;;;3.87;2.80;;;15.50;99.90;;;;;;5050901;28;20512;-54
2021/10/15 11:42:53;;;;;;;6.13;3.23;;;15.60;99.90;;;;;;5050999;28;20459;-55
2021/10/15 11:45:33;;;;;;;6.37;3.13;;;15.70;99.90;;;;;;5050714;28;21007;-55
2021/10/15 11:48:06;;;;;;;6.20;3.40;;;15.90;99.90;;;;;;5049142;28;20527;-53
2021/10/15 11:50:42;;;;;;;3.20;2.90;;;16.00;99.90;;;;;;5050760;28;20475;-53
2021/10/15 11:53:11;;;;;;;3.60;3.23;;;15.90;99.90;;;;;;5051009;28;20446;-53
2021/10/15 11:55:40;;;;;;;4.93;3.27;;;16.00;99.90;;;;;;5050731;28;21066;-54
2021/10/15 11:58:32;;;;;;;5.07;4.47;;;16.00;99.90;;;;;;5050524;28;20501;-52
2021/10/15 12:01:15;;;;;;;8.30;4.83;;;15.90;99.90;;;;;;5051565;28;20450;-54
2021/10/15 12:03:45;;;;;;;5.60;4.67;;;15.80;99.90;;;;;;5054977;28;20451;-52
2021/10/15 12:06:14;;;;;;;6.10;4.30;;;15.40;99.90;;;;;;5054496;28;20467;-53
2021/10/15 12:08:45;;;;;;;5.40;4.67;;;15.40;99.90;;;;;;5054683;28;20443;-52
2021/10/15 12:11:15;;;;;;;5.17;4.30;;;15.60;99.90;;;;;;5054400;28;20534;-53
2021/10/15 12:13:43;;;;;;;5.87;3.80;;;15.60;99.90;;;;;;5048982;28;20953;-52
2021/10/15 12:16:22;;;;;;;3.70;3.40;;;15.50;99.90;;;;;;5054582;28;20491;-52
2021/10/15 12:18:57;;;;;;;7.60;4.40;;;15.50;99.90;;;;;;5054493;28;20471;-53
2021/10/15 12:21:31;;;;;;;5.20;4.20;;;15.70;99.90;;;;;;5054700;28;20450;-53
2021/10/15 12:24:00;;;;;;;7.07;3.93;;;15.60;99.90;;;;;;5054805;28;20447;-52
2021/10/15 12:26:28;;;;;;;4.87;4.40;;;15.60;99.90;;;;;;5054110;28;20473;-52
2021/10/15 12:28:55;;;;;;;4.53;4.03;;;15.70;99.90;;;;;;5062298;28;20454;-51
2021/10/15 12:31:28;;;;;;;4.13;3.73;;;15.80;99.90;;;;;;5058195;28;21023;-53
2021/10/15 12:34:09;;;;;;;4.73;4.23;;;15.90;99.90;;;;;;5054312;28;20849;-53
2021/10/15 12:36:40;;;;;;;3.80;3.17;;;15.90;99.90;;;;;;5054351;28;20558;-52
2021/10/15 12:39:26;;;;;;;2.90;2.70;;;15.70;99.90;;;;;;5054348;28;20448;-52
2021/10/15 12:41:55;;;;;;;4.57;2.70;;;15.60;99.90;;;;;;5054267;28;20981;-52
2021/10/15 12:44:31;;;;;;;2.60;2.40;;;15.70;99.90;;;;;;5053899;28;20444;-52
2021/10/15 12:47:01;;;;;;;3.30;2.97;;;15.60;99.90;;;;;;5086882;22;20494;-58
2021/10/15 12:49:29;;;;;;;5.23;3.60;;;15.60;99.90;;;;;;5094579;28;20445;-59
2021/10/15 12:51:57;;;;;;;4.70;3.63;;;15.20;99.90;;;;;;5093734;28;20492;-58
2021/10/15 12:54:46;;;;;;;5.73;4.00;;;15.10;99.90;;;;;;5084999;28;20498;-58
2021/10/15 12:57:15;;;;;;;4.20;3.50;;;15.30;99.90;;;;;;5100876;28;20465;-58
2021/10/15 12:59:57;;;;;;;4.67;3.50;;;15.30;99.90;;;;;;5107523;28;20446;-58
2021/10/15 13:02:28;;;;;;;4.30;3.33;;;15.40;99.90;;;;;;5094106;28;20503;-58
2021/10/15 13:04:57;;;;;;;4.43;3.43;;;15.50;99.90;;;;;;5094029;28;20450;-58
2021/10/15 13:07:24;;;;;;;4.37;3.37;;;15.30;99.90;;;;;;5094056;28;20473;-58
2021/10/15 13:09:53;;;;;;;4.50;3.00;;;15.20;99.90;;;;;;5094176;28;20511;-58
2021/10/15 13:12:20;;;;;;;3.70;3.27;;;15.20;99.90;;;;;;5093756;28;20442;-58